RYR2DC EIDW-EGSS
Flight info
| Callsign | RYR2DC |
|---|---|
| Flight time | 0h 52m |
| Altitude | 31000 |
| Route | ENDEQ3J ENDEQ Q36 NOSLO Z197 LISTO |
| Aircraft | B738/M-SDGIJ1LRWY/SB1 |
Departure
| Time | 2026-05-05 16:05 |
|---|---|
| Airport | Dublin Airport (EIDW) |
Arrival
| Time | 2026-05-05 16:58 |
|---|---|
| Airport | London Stansted Airport (EGSS) |
| Time | Latitude | Longitude | Altitude | Speed | Heading |
|---|---|---|---|---|---|
| 2026-05-05 15:25 | 53.43101 | -6.24601 | 214 ft | 0 kts | 186° |
| 2026-05-05 15:56 | 53.43105 | -6.24600 | 214 ft | 2 kts | 186° |
| 2026-05-05 15:56 | 53.43120 | -6.24597 | 214 ft | 2 kts | 186° |
| 2026-05-05 15:56 | 53.43135 | -6.24595 | 213 ft | 1 kts | 186° |
| 2026-05-05 15:57 | 53.43144 | -6.24593 | 213 ft | 2 kts | 182° |
| 2026-05-05 15:57 | 53.43159 | -6.24596 | 212 ft | 2 kts | 163° |
| 2026-05-05 15:57 | 53.43173 | -6.24606 | 212 ft | 2 kts | 148° |
| 2026-05-05 15:57 | 53.43185 | -6.24622 | 211 ft | 2 kts | 133° |
| 2026-05-05 15:58 | 53.43193 | -6.24642 | 210 ft | 2 kts | 118° |
| 2026-05-05 15:58 | 53.43199 | -6.24664 | 210 ft | 2 kts | 103° |
| 2026-05-05 15:58 | 53.43201 | -6.24678 | 210 ft | 1 kts | 95° |
| 2026-05-05 15:58 | 53.43199 | -6.24663 | 210 ft | 4 kts | 97° |
| 2026-05-05 15:59 | 53.43195 | -6.24581 | 212 ft | 7 kts | 96° |
| 2026-05-05 15:59 | 53.43191 | -6.24524 | 213 ft | 2 kts | 96° |
| 2026-05-05 15:59 | 53.43190 | -6.24513 | 213 ft | 0 kts | 95° |
| 2026-05-05 16:02 | 53.43191 | -6.24480 | 214 ft | 5 kts | 80° |
| 2026-05-05 16:03 | 53.43216 | -6.24432 | 216 ft | 5 kts | 20° |
| 2026-05-05 16:03 | 53.43254 | -6.24412 | 215 ft | 6 kts | 17° |
| 2026-05-05 16:03 | 53.43311 | -6.24404 | 213 ft | 10 kts | 350° |
| 2026-05-05 16:03 | 53.43359 | -6.24533 | 210 ft | 15 kts | 303° |
| 2026-05-05 16:04 | 53.43451 | -6.24555 | 209 ft | 13 kts | 7° |
| 2026-05-05 16:04 | 53.43520 | -6.24566 | 209 ft | 8 kts | 307° |
| 2026-05-05 16:04 | 53.43529 | -6.24627 | 208 ft | 0 kts | 275° |
| 2026-05-05 16:04 | 53.43531 | -6.24663 | 207 ft | 14 kts | 275° |
| 2026-05-05 16:05 | 53.43563 | -6.25251 | 207 ft | 83 kts | 275° |
| 2026-05-05 16:05 | 53.43634 | -6.26533 | 224 ft | 137 kts | 275° |
| 2026-05-05 16:05 | 53.43738 | -6.28359 | 379 ft | 167 kts | 276° |
| 2026-05-05 16:05 | 53.43872 | -6.30249 | 966 ft | 166 kts | 288° |
| 2026-05-05 16:06 | 53.44552 | -6.31739 | 1450 ft | 167 kts | 335° |
| 2026-05-05 16:06 | 53.45558 | -6.32587 | 2016 ft | 168 kts | 324° |
| 2026-05-05 16:06 | 53.46311 | -6.34248 | 2334 ft | 186 kts | 302° |
| 2026-05-05 16:06 | 53.47144 | -6.35856 | 2757 ft | 190 kts | 332° |
| 2026-05-05 16:07 | 53.48465 | -6.36206 | 3027 ft | 204 kts | 14° |
| 2026-05-05 16:07 | 53.49794 | -6.35340 | 3569 ft | 210 kts | 22° |
| 2026-05-05 16:07 | 53.51078 | -6.34163 | 4141 ft | 218 kts | 36° |
| 2026-05-05 16:07 | 53.52135 | -6.32385 | 4853 ft | 221 kts | 53° |
| 2026-05-05 16:08 | 53.52701 | -6.29904 | 5231 ft | 241 kts | 82° |
| 2026-05-05 16:08 | 53.52697 | -6.26994 | 5648 ft | 258 kts | 91° |
| 2026-05-05 16:08 | 53.52576 | -6.23908 | 6112 ft | 270 kts | 91° |
| 2026-05-05 16:08 | 53.52478 | -6.20748 | 6742 ft | 275 kts | 90° |
| 2026-05-05 16:09 | 53.52410 | -6.17542 | 7440 ft | 278 kts | 89° |
| 2026-05-05 16:09 | 53.52355 | -6.14283 | 8140 ft | 282 kts | 89° |
| 2026-05-05 16:09 | 53.52303 | -6.11022 | 8811 ft | 287 kts | 90° |
| 2026-05-05 16:09 | 53.52224 | -6.07663 | 9055 ft | 291 kts | 93° |
| 2026-05-05 16:10 | 53.51898 | -6.04213 | 9433 ft | 302 kts | 101° |
| 2026-05-05 16:10 | 53.51408 | -6.00853 | 10397 ft | 298 kts | 103° |
| 2026-05-05 16:10 | 53.50873 | -5.97435 | 10829 ft | 313 kts | 103° |
| 2026-05-05 16:10 | 53.50314 | -5.93817 | 11254 ft | 328 kts | 103° |
| 2026-05-05 16:11 | 53.49748 | -5.90034 | 11679 ft | 343 kts | 103° |
| 2026-05-05 16:11 | 53.48077 | -5.78096 | 13772 ft | 360 kts | 101° |
| 2026-05-05 16:12 | 53.47565 | -5.73970 | 14517 ft | 365 kts | 101° |
| 2026-05-05 16:12 | 53.46538 | -5.65610 | 15989 ft | 374 kts | 101° |
| 2026-05-05 16:13 | 53.45776 | -5.52435 | 18068 ft | 387 kts | 91° |
| 2026-05-05 16:13 | 53.45679 | -5.47931 | 18729 ft | 391 kts | 91° |
| 2026-05-05 16:13 | 53.45568 | -5.43388 | 19374 ft | 396 kts | 92° |
| 2026-05-05 16:14 | 53.45280 | -5.34082 | 20638 ft | 404 kts | 93° |
| 2026-05-05 16:14 | 53.44944 | -5.24665 | 21786 ft | 412 kts | 93° |
| 2026-05-05 16:15 | 53.44583 | -5.15021 | 22926 ft | 420 kts | 94° |
| 2026-05-05 16:15 | 53.44205 | -5.05207 | 24028 ft | 426 kts | 94° |
| 2026-05-05 16:16 | 53.43814 | -4.95254 | 25100 ft | 433 kts | 94° |
| 2026-05-05 16:16 | 53.43413 | -4.85268 | 26492 ft | 429 kts | 94° |
| 2026-05-05 16:17 | 53.43005 | -4.75294 | 27785 ft | 427 kts | 94° |
| 2026-05-05 16:17 | 53.42796 | -4.70251 | 28419 ft | 425 kts | 94° |
| 2026-05-05 16:18 | 53.42382 | -4.60464 | 29584 ft | 422 kts | 94° |
| 2026-05-05 16:18 | 53.42171 | -4.55530 | 30139 ft | 421 kts | 94° |
| 2026-05-05 16:18 | 53.41746 | -4.45742 | 30738 ft | 423 kts | 94° |
| 2026-05-05 16:19 | 53.41530 | -4.40847 | 30985 ft | 420 kts | 94° |
| 2026-05-05 16:19 | 53.40875 | -4.26243 | 31034 ft | 418 kts | 95° |
| 2026-05-05 16:20 | 53.39981 | -4.06928 | 31028 ft | 418 kts | 95° |
| 2026-05-05 16:22 | 53.38903 | -3.82787 | 31024 ft | 418 kts | 94° |
| 2026-05-05 16:23 | 53.37965 | -3.63244 | 31026 ft | 439 kts | 98° |
| 2026-05-05 16:23 | 53.36044 | -3.47787 | 31327 ft | 460 kts | 103° |
| 2026-05-05 16:24 | 53.35318 | -3.42734 | 32208 ft | 449 kts | 103° |
| 2026-05-05 16:24 | 53.34588 | -3.37692 | 32859 ft | 441 kts | 103° |
| 2026-05-05 16:24 | 53.33079 | -3.27959 | 33030 ft | 425 kts | 106° |
| 2026-05-05 16:25 | 53.32293 | -3.23304 | 33034 ft | 422 kts | 107° |
| 2026-05-05 16:25 | 53.29868 | -3.09126 | 33032 ft | 424 kts | 106° |
| 2026-05-05 16:26 | 53.26689 | -2.90276 | 33022 ft | 421 kts | 105° |
| 2026-05-05 16:27 | 53.25109 | -2.80896 | 33020 ft | 420 kts | 105° |
| 2026-05-05 16:27 | 53.23496 | -2.71558 | 33022 ft | 422 kts | 106° |
| 2026-05-05 16:28 | 53.21855 | -2.62232 | 33018 ft | 419 kts | 105° |
| 2026-05-05 16:28 | 53.20216 | -2.52963 | 33015 ft | 417 kts | 105° |
| 2026-05-05 16:29 | 53.18577 | -2.43713 | 33007 ft | 416 kts | 105° |
| 2026-05-05 16:29 | 53.16933 | -2.34473 | 33008 ft | 420 kts | 106° |
| 2026-05-05 16:30 | 53.14648 | -2.25688 | 33002 ft | 416 kts | 130° |
| 2026-05-05 16:30 | 53.10347 | -2.19309 | 32991 ft | 418 kts | 141° |
| 2026-05-05 16:31 | 53.05795 | -2.13402 | 32985 ft | 415 kts | 142° |
| 2026-05-05 16:31 | 53.01279 | -2.07508 | 32984 ft | 414 kts | 141° |
| 2026-05-05 16:32 | 52.99053 | -2.04567 | 32773 ft | 411 kts | 141° |
| 2026-05-05 16:32 | 52.96838 | -2.01623 | 32512 ft | 403 kts | 141° |
| 2026-05-05 16:32 | 52.94685 | -1.98750 | 32268 ft | 397 kts | 141° |
| 2026-05-05 16:32 | 52.92551 | -1.95893 | 32017 ft | 398 kts | 140° |
| 2026-05-05 16:33 | 52.90401 | -1.93012 | 31782 ft | 400 kts | 140° |
| 2026-05-05 16:33 | 52.88234 | -1.90107 | 31534 ft | 400 kts | 141° |
| 2026-05-05 16:33 | 52.86075 | -1.87215 | 31212 ft | 395 kts | 141° |
| 2026-05-05 16:33 | 52.83965 | -1.84390 | 30799 ft | 392 kts | 141° |
| 2026-05-05 16:34 | 52.81867 | -1.81584 | 30323 ft | 389 kts | 141° |
| 2026-05-05 16:34 | 52.79773 | -1.78787 | 29882 ft | 385 kts | 141° |
| 2026-05-05 16:34 | 52.77702 | -1.76023 | 29448 ft | 382 kts | 142° |
| 2026-05-05 16:34 | 52.75639 | -1.73340 | 29015 ft | 378 kts | 144° |
| 2026-05-05 16:35 | 52.73485 | -1.70923 | 28580 ft | 374 kts | 150° |
| 2026-05-05 16:35 | 52.71260 | -1.68814 | 28153 ft | 370 kts | 153° |
| 2026-05-05 16:35 | 52.69004 | -1.66856 | 27715 ft | 366 kts | 154° |
| 2026-05-05 16:35 | 52.66763 | -1.64976 | 27282 ft | 363 kts | 155° |
| 2026-05-05 16:36 | 52.64505 | -1.63091 | 26852 ft | 359 kts | 155° |
| 2026-05-05 16:36 | 52.62302 | -1.61242 | 26417 ft | 356 kts | 155° |
| 2026-05-05 16:36 | 52.60127 | -1.59408 | 26002 ft | 353 kts | 155° |
| 2026-05-05 16:36 | 52.57954 | -1.57567 | 25577 ft | 349 kts | 155° |
| 2026-05-05 16:37 | 52.55816 | -1.55749 | 25151 ft | 346 kts | 155° |
| 2026-05-05 16:37 | 52.53681 | -1.53931 | 24731 ft | 342 kts | 155° |
| 2026-05-05 16:37 | 52.51589 | -1.52148 | 24314 ft | 339 kts | 154° |
| 2026-05-05 16:37 | 52.49535 | -1.50398 | 23906 ft | 336 kts | 154° |
| 2026-05-05 16:38 | 52.47470 | -1.48639 | 23502 ft | 333 kts | 155° |
| 2026-05-05 16:38 | 52.45427 | -1.46901 | 23098 ft | 330 kts | 154° |
| 2026-05-05 16:38 | 52.43398 | -1.45176 | 22701 ft | 327 kts | 154° |
| 2026-05-05 16:38 | 52.41401 | -1.43481 | 22304 ft | 325 kts | 154° |
| 2026-05-05 16:39 | 52.39397 | -1.41781 | 21901 ft | 322 kts | 154° |
| 2026-05-05 16:39 | 52.37431 | -1.40115 | 21509 ft | 320 kts | 154° |
| 2026-05-05 16:39 | 52.35461 | -1.38448 | 21128 ft | 326 kts | 154° |
| 2026-05-05 16:39 | 52.33400 | -1.36711 | 20702 ft | 339 kts | 154° |
| 2026-05-05 16:40 | 52.31327 | -1.34963 | 20277 ft | 338 kts | 155° |
| 2026-05-05 16:40 | 52.29236 | -1.33186 | 19973 ft | 332 kts | 154° |
| 2026-05-05 16:40 | 52.27243 | -1.31384 | 19973 ft | 331 kts | 152° |
| 2026-05-05 16:40 | 52.25242 | -1.29493 | 19733 ft | 337 kts | 152° |
| 2026-05-05 16:41 | 52.23214 | -1.27548 | 19471 ft | 334 kts | 151° |
| 2026-05-05 16:41 | 52.21240 | -1.25657 | 19217 ft | 331 kts | 151° |
| 2026-05-05 16:41 | 52.19257 | -1.23769 | 18904 ft | 332 kts | 151° |
| 2026-05-05 16:41 | 52.17269 | -1.21884 | 18543 ft | 329 kts | 151° |
| 2026-05-05 16:42 | 52.15297 | -1.20022 | 18138 ft | 326 kts | 151° |
| 2026-05-05 16:42 | 52.13392 | -1.18082 | 17741 ft | 324 kts | 141° |
| 2026-05-05 16:42 | 52.11988 | -1.15311 | 17375 ft | 325 kts | 116° |
| 2026-05-05 16:42 | 52.11254 | -1.11814 | 16968 ft | 325 kts | 104° |
| 2026-05-05 16:43 | 52.10744 | -1.08271 | 16586 ft | 322 kts | 102° |
| 2026-05-05 16:43 | 52.10256 | -1.04763 | 16148 ft | 320 kts | 103° |
| 2026-05-05 16:43 | 52.09745 | -1.01285 | 15770 ft | 317 kts | 103° |
| 2026-05-05 16:43 | 52.09209 | -0.97826 | 15395 ft | 314 kts | 104° |
| 2026-05-05 16:44 | 52.08659 | -0.94394 | 14977 ft | 313 kts | 104° |
| 2026-05-05 16:44 | 52.08105 | -0.91007 | 14581 ft | 310 kts | 104° |
| 2026-05-05 16:44 | 52.07553 | -0.87643 | 14206 ft | 307 kts | 105° |
| 2026-05-05 16:44 | 52.07007 | -0.84329 | 13829 ft | 305 kts | 105° |
| 2026-05-05 16:45 | 52.06463 | -0.81023 | 13454 ft | 303 kts | 105° |
| 2026-05-05 16:45 | 52.05922 | -0.77747 | 13090 ft | 301 kts | 104° |
| 2026-05-05 16:45 | 52.05380 | -0.74462 | 12688 ft | 300 kts | 104° |
| 2026-05-05 16:45 | 52.04844 | -0.71220 | 12314 ft | 298 kts | 104° |
| 2026-05-05 16:46 | 52.04308 | -0.67979 | 11937 ft | 297 kts | 104° |
| 2026-05-05 16:46 | 52.03778 | -0.64788 | 11565 ft | 295 kts | 104° |
| 2026-05-05 16:46 | 52.03246 | -0.61584 | 11195 ft | 293 kts | 104° |
| 2026-05-05 16:46 | 52.02718 | -0.58413 | 10826 ft | 291 kts | 104° |
| 2026-05-05 16:47 | 52.02191 | -0.55254 | 10458 ft | 290 kts | 104° |
| 2026-05-05 16:47 | 52.01672 | -0.52149 | 10097 ft | 288 kts | 104° |
| 2026-05-05 16:47 | 52.01150 | -0.49026 | 9734 ft | 287 kts | 104° |
| 2026-05-05 16:47 | 52.00629 | -0.45923 | 9371 ft | 285 kts | 104° |
| 2026-05-05 16:48 | 52.00106 | -0.42809 | 9010 ft | 284 kts | 103° |
| 2026-05-05 16:48 | 51.99513 | -0.39768 | 8640 ft | 284 kts | 111° |
| 2026-05-05 16:48 | 51.98533 | -0.37006 | 8266 ft | 284 kts | 125° |
| 2026-05-05 16:48 | 51.97324 | -0.34538 | 7909 ft | 282 kts | 129° |
| 2026-05-05 16:49 | 51.96066 | -0.32116 | 7550 ft | 281 kts | 129° |
| 2026-05-05 16:49 | 51.94829 | -0.29684 | 7201 ft | 279 kts | 128° |
| 2026-05-05 16:49 | 51.93618 | -0.27236 | 6846 ft | 277 kts | 127° |
| 2026-05-05 16:49 | 51.92430 | -0.24787 | 6499 ft | 276 kts | 126° |
| 2026-05-05 16:50 | 51.91260 | -0.22351 | 6128 ft | 271 kts | 126° |
| 2026-05-05 16:50 | 51.90140 | -0.20021 | 5839 ft | 262 kts | 126° |
| 2026-05-05 16:50 | 51.89033 | -0.17727 | 5485 ft | 254 kts | 126° |
| 2026-05-05 16:50 | 51.87975 | -0.15528 | 5195 ft | 244 kts | 126° |
| 2026-05-05 16:51 | 51.86953 | -0.13409 | 4967 ft | 232 kts | 125° |
| 2026-05-05 16:51 | 51.85995 | -0.11431 | 4788 ft | 220 kts | 125° |
| 2026-05-05 16:51 | 51.85083 | -0.09557 | 4649 ft | 206 kts | 125° |
| 2026-05-05 16:51 | 51.84227 | -0.07787 | 4440 ft | 196 kts | 124° |
| 2026-05-05 16:52 | 51.83396 | -0.06064 | 4273 ft | 190 kts | 124° |
| 2026-05-05 16:52 | 51.82616 | -0.04444 | 4115 ft | 181 kts | 123° |
| 2026-05-05 16:52 | 51.81848 | -0.02854 | 3862 ft | 179 kts | 123° |
| 2026-05-05 16:52 | 51.81073 | -0.01250 | 3417 ft | 184 kts | 123° |
| 2026-05-05 16:53 | 51.80293 | 0.00344 | 3178 ft | 178 kts | 123° |
| 2026-05-05 16:53 | 51.79525 | 0.01923 | 3154 ft | 179 kts | 123° |
| 2026-05-05 16:53 | 51.78759 | 0.03497 | 3128 ft | 180 kts | 123° |
| 2026-05-05 16:53 | 51.78058 | 0.05153 | 2980 ft | 177 kts | 110° |
| 2026-05-05 16:54 | 51.77934 | 0.06957 | 2807 ft | 165 kts | 70° |
| 2026-05-05 16:54 | 51.78161 | 0.07723 | 2751 ft | 164 kts | 51° |
| 2026-05-05 16:54 | 51.78944 | 0.09110 | 2605 ft | 167 kts | 44° |
| 2026-05-05 16:54 | 51.79747 | 0.10413 | 2489 ft | 164 kts | 42° |
| 2026-05-05 16:55 | 51.80589 | 0.11692 | 2268 ft | 165 kts | 42° |
| 2026-05-05 16:55 | 51.81404 | 0.12893 | 2055 ft | 155 kts | 40° |
| 2026-05-05 16:55 | 51.82162 | 0.14025 | 1851 ft | 148 kts | 42° |
| 2026-05-05 16:55 | 51.82899 | 0.15141 | 1634 ft | 141 kts | 41° |
| 2026-05-05 16:56 | 51.83627 | 0.16206 | 1454 ft | 143 kts | 41° |
| 2026-05-05 16:56 | 51.84360 | 0.17280 | 1267 ft | 143 kts | 41° |
| 2026-05-05 16:56 | 51.85086 | 0.18362 | 1031 ft | 145 kts | 45° |
| 2026-05-05 16:56 | 51.85830 | 0.19493 | 850 ft | 146 kts | 43° |
| 2026-05-05 16:57 | 51.86557 | 0.20579 | 682 ft | 144 kts | 42° |
| 2026-05-05 16:57 | 51.87308 | 0.21696 | 472 ft | 146 kts | 45° |
| 2026-05-05 16:57 | 51.88052 | 0.22807 | 340 ft | 138 kts | 44° |
| 2026-05-05 16:57 | 51.88548 | 0.23554 | 338 ft | 62 kts | 41° |
| 2026-05-05 16:58 | 51.88806 | 0.23963 | 336 ft | 36 kts | 55° |
| 2026-05-05 16:58 | 51.88883 | 0.24224 | 334 ft | 24 kts | 72° |
| 2026-05-05 16:58 | 51.88920 | 0.24463 | 335 ft | 16 kts | 98° |
| 2026-05-05 16:58 | 51.88860 | 0.24597 | 331 ft | 15 kts | 134° |
| 2026-05-05 16:59 | 51.88811 | 0.24705 | 329 ft | 10 kts | 91° |
| 2026-05-05 16:59 | 51.88860 | 0.24798 | 331 ft | 12 kts | 42° |
| 2026-05-05 16:59 | 51.88932 | 0.24902 | 332 ft | 14 kts | 40° |
| 2026-05-05 16:59 | 51.89004 | 0.25005 | 333 ft | 13 kts | 41° |
| 2026-05-05 17:00 | 51.89062 | 0.25096 | 335 ft | 10 kts | 46° |
| 2026-05-05 17:00 | 51.89110 | 0.25177 | 337 ft | 10 kts | 42° |
| 2026-05-05 17:00 | 51.89173 | 0.25269 | 340 ft | 14 kts | 41° |
| 2026-05-05 17:00 | 51.89255 | 0.25391 | 341 ft | 15 kts | 41° |
| 2026-05-05 17:01 | 51.89333 | 0.25507 | 343 ft | 14 kts | 43° |
| 2026-05-05 17:01 | 51.89404 | 0.25613 | 344 ft | 13 kts | 42° |
| 2026-05-05 17:01 | 51.89468 | 0.25709 | 346 ft | 12 kts | 43° |
| 2026-05-05 17:01 | 51.89526 | 0.25801 | 349 ft | 10 kts | 54° |
| 2026-05-05 17:02 | 51.89514 | 0.25891 | 349 ft | 8 kts | 136° |
| 2026-05-05 17:02 | 51.89474 | 0.25958 | 349 ft | 8 kts | 132° |
| 2026-05-05 17:02 | 51.89446 | 0.26002 | 349 ft | 2 kts | 160° |
| 2026-05-05 17:02 | 51.89416 | 0.25973 | 349 ft | 6 kts | 224° |
| 2026-05-05 17:03 | 51.89397 | 0.25944 | 349 ft | 2 kts | 223° |
| 2026-05-05 17:03 | 51.89393 | 0.25937 | 349 ft | 0 kts | 223° |